Scheibbs, Austria
Current Conditions -  °F | °C
As of 12:50 PM on Thursday 23 Oct 2014 (Local Time) from LOWL Reporting Station
Broken Clouds Broken Clouds  
Wind Chill: 50°   Ceiling: 2800
Heat Index: 50°   Visibility: 6mi
Dew Point: 46°   Wind: 12mph
Humidity: 87%   Direction: 270°W
Pressure: 29.97"   Gusts: NA
Location:  48.01°N, 15.17°E
Report Text: LOWL 231050Z 27010KT 9999 FEW009 SCT023 BKN028 10/08 Q1015 NOSIG
Loading
Personal Weather Stations






























Interactive Weather Map
Tropical Storm Tracking
New forecast layout! Learn more

10-Day Weather Forecast

Advertisements
Track Severe Weather on mobile